sensor_id;sensor_type;location;lat;lon;timestamp;P1;durP1;ratioP1;P2;durP2;ratioP2
1531;SDS011;759;53.170;8.210;2022-08-21T00:00:42;3.30;;;3.10;;
1531;SDS011;759;53.170;8.210;2022-08-21T00:03:09;3.20;;;2.90;;
1531;SDS011;759;53.170;8.210;2022-08-21T00:05:38;3.80;;;3.47;;
1531;SDS011;759;53.170;8.210;2022-08-21T00:08:06;3.10;;;2.90;;
1531;SDS011;759;53.170;8.210;2022-08-21T00:10:32;7.70;;;3.60;;
1531;SDS011;759;53.170;8.210;2022-08-21T00:12:57;3.13;;;2.90;;
1531;SDS011;759;53.170;8.210;2022-08-21T00:15:27;3.50;;;3.20;;
1531;SDS011;759;53.170;8.210;2022-08-21T00:17:54;4.20;;;3.23;;
1531;SDS011;759;53.170;8.210;2022-08-21T00:20:21;7.77;;;3.93;;
1531;SDS011;759;53.170;8.210;2022-08-21T00:22:47;6.10;;;3.00;;
1531;SDS011;759;53.170;8.210;2022-08-21T00:25:14;9.07;;;4.60;;
1531;SDS011;759;53.170;8.210;2022-08-21T00:27:40;6.30;;;4.03;;
1531;SDS011;759;53.170;8.210;2022-08-21T00:30:12;4.60;;;3.30;;
1531;SDS011;759;53.170;8.210;2022-08-21T00:32:39;4.85;;;3.40;;
1531;SDS011;759;53.170;8.210;2022-08-21T00:35:06;4.47;;;3.47;;
1531;SDS011;759;53.170;8.210;2022-08-21T00:37:33;8.90;;;4.37;;
1531;SDS011;759;53.170;8.210;2022-08-21T00:39:59;4.00;;;3.53;;
1531;SDS011;759;53.170;8.210;2022-08-21T00:42:24;7.13;;;3.37;;
1531;SDS011;759;53.170;8.210;2022-08-21T00:44:50;4.00;;;2.77;;
1531;SDS011;759;53.170;8.210;2022-08-21T00:47:17;5.00;;;3.05;;
1531;SDS011;759;53.170;8.210;2022-08-21T00:49:43;3.80;;;3.30;;
1531;SDS011;759;53.170;8.210;2022-08-21T00:52:11;15.10;;;4.70;;
1531;SDS011;759;53.170;8.210;2022-08-21T00:54:40;6.53;;;3.67;;
1531;SDS011;759;53.170;8.210;2022-08-21T00:57:16;3.13;;;2.80;;
1531;SDS011;759;53.170;8.210;2022-08-21T00:59:46;6.90;;;3.67;;
1531;SDS011;759;53.170;8.210;2022-08-21T01:02:15;4.77;;;3.37;;
1531;SDS011;759;53.170;8.210;2022-08-21T01:04:41;4.80;;;3.27;;
1531;SDS011;759;53.170;8.210;2022-08-21T01:07:06;4.00;;;3.27;;
1531;SDS011;759;53.170;8.210;2022-08-21T01:09:32;6.63;;;3.93;;
1531;SDS011;759;53.170;8.210;2022-08-21T01:11:58;6.33;;;4.10;;
1531;SDS011;759;53.170;8.210;2022-08-21T01:14:24;5.37;;;3.43;;
1531;SDS011;759;53.170;8.210;2022-08-21T01:16:50;6.93;;;3.57;;
1531;SDS011;759;53.170;8.210;2022-08-21T01:19:18;4.13;;;3.60;;
1531;SDS011;759;53.170;8.210;2022-08-21T01:21:45;4.20;;;2.90;;
1531;SDS011;759;53.170;8.210;2022-08-21T01:24:12;8.20;;;3.50;;
1531;SDS011;759;53.170;8.210;2022-08-21T01:26:38;4.93;;;3.13;;
1531;SDS011;759;53.170;8.210;2022-08-21T01:29:48;5.10;;;2.90;;
1531;SDS011;759;53.170;8.210;2022-08-21T01:32:12;3.20;;;3.00;;
1531;SDS011;759;53.170;8.210;2022-08-21T01:34:41;4.10;;;3.40;;
1531;SDS011;759;53.170;8.210;2022-08-21T01:37:09;4.17;;;3.60;;
1531;SDS011;759;53.170;8.210;2022-08-21T01:39:35;8.27;;;3.53;;
1531;SDS011;759;53.170;8.210;2022-08-21T01:42:01;3.20;;;2.90;;
1531;SDS011;759;53.170;8.210;2022-08-21T01:44:27;5.10;;;3.10;;
1531;SDS011;759;53.170;8.210;2022-08-21T01:46:53;4.67;;;3.23;;
1531;SDS011;759;53.170;8.210;2022-08-21T01:49:20;2.83;;;2.63;;
1531;SDS011;759;53.170;8.210;2022-08-21T01:51:45;5.90;;;3.33;;
1531;SDS011;759;53.170;8.210;2022-08-21T01:54:11;3.63;;;2.47;;
1531;SDS011;759;53.170;8.210;2022-08-21T01:56:37;3.23;;;2.60;;
1531;SDS011;759;53.170;8.210;2022-08-21T01:59:05;5.70;;;3.67;;
1531;SDS011;759;53.170;8.210;2022-08-21T02:01:31;5.85;;;2.90;;
1531;SDS011;759;53.170;8.210;2022-08-21T02:03:56;4.97;;;2.90;;
1531;SDS011;759;53.170;8.210;2022-08-21T02:06:22;5.30;;;3.60;;
1531;SDS011;759;53.170;8.210;2022-08-21T02:08:47;3.20;;;2.30;;
1531;SDS011;759;53.170;8.210;2022-08-21T02:11:15;3.00;;;2.80;;
1531;SDS011;759;53.170;8.210;2022-08-21T02:13:41;4.47;;;3.00;;
1531;SDS011;759;53.170;8.210;2022-08-21T02:16:06;10.83;;;3.43;;
1531;SDS011;759;53.170;8.210;2022-08-21T02:18:33;2.97;;;2.77;;
1531;SDS011;759;53.170;8.210;2022-08-21T02:20:59;3.00;;;2.70;;
1531;SDS011;759;53.170;8.210;2022-08-21T02:23:24;6.50;;;3.23;;
1531;SDS011;759;53.170;8.210;2022-08-21T02:25:49;5.87;;;3.17;;
1531;SDS011;759;53.170;8.210;2022-08-21T02:28:15;4.10;;;3.70;;
1531;SDS011;759;53.170;8.210;2022-08-21T02:30:42;6.60;;;3.60;;
1531;SDS011;759;53.170;8.210;2022-08-21T02:33:09;5.63;;;3.40;;
1531;SDS011;759;53.170;8.210;2022-08-21T02:35:37;3.90;;;3.20;;
1531;SDS011;759;53.170;8.210;2022-08-21T02:38:04;3.50;;;3.20;;
1531;SDS011;759;53.170;8.210;2022-08-21T02:40:32;4.17;;;3.03;;
1531;SDS011;759;53.170;8.210;2022-08-21T02:43:00;6.30;;;4.50;;
1531;SDS011;759;53.170;8.210;2022-08-21T02:45:27;3.27;;;2.97;;
1531;SDS011;759;53.170;8.210;2022-08-21T02:47:55;6.30;;;3.47;;
1531;SDS011;759;53.170;8.210;2022-08-21T02:50:24;4.85;;;3.30;;
1531;SDS011;759;53.170;8.210;2022-08-21T02:52:51;3.00;;;2.80;;
1531;SDS011;759;53.170;8.210;2022-08-21T02:55:18;7.00;;;3.03;;
1531;SDS011;759;53.170;8.210;2022-08-21T02:57:45;10.03;;;4.93;;
1531;SDS011;759;53.170;8.210;2022-08-21T03:00:11;4.00;;;3.40;;
1531;SDS011;759;53.170;8.210;2022-08-21T03:02:38;2.97;;;2.73;;
1531;SDS011;759;53.170;8.210;2022-08-21T03:05:04;5.43;;;2.70;;
1531;SDS011;759;53.170;8.210;2022-08-21T03:07:31;6.10;;;4.00;;
1531;SDS011;759;53.170;8.210;2022-08-21T03:09:56;3.70;;;2.93;;
1531;SDS011;759;53.170;8.210;2022-08-21T03:12:22;7.30;;;2.80;;
1531;SDS011;759;53.170;8.210;2022-08-21T03:14:47;3.50;;;3.20;;
1531;SDS011;759;53.170;8.210;2022-08-21T03:17:13;3.53;;;3.03;;
1531;SDS011;759;53.170;8.210;2022-08-21T03:19:38;3.57;;;3.27;;
1531;SDS011;759;53.170;8.210;2022-08-21T03:22:04;3.57;;;3.27;;
1531;SDS011;759;53.170;8.210;2022-08-21T03:24:30;6.23;;;3.60;;
1531;SDS011;759;53.170;8.210;2022-08-21T03:26:55;6.40;;;3.95;;
1531;SDS011;759;53.170;8.210;2022-08-21T03:29:21;4.30;;;3.90;;
1531;SDS011;759;53.170;8.210;2022-08-21T03:31:47;4.80;;;4.10;;
1531;SDS011;759;53.170;8.210;2022-08-21T03:34:12;8.93;;;4.53;;
1531;SDS011;759;53.170;8.210;2022-08-21T03:36:38;4.10;;;3.80;;
1531;SDS011;759;53.170;8.210;2022-08-21T03:39:03;4.93;;;4.40;;
1531;SDS011;759;53.170;8.210;2022-08-21T03:41:29;5.20;;;4.50;;
1531;SDS011;759;53.170;8.210;2022-08-21T03:43:54;10.10;;;5.00;;
1531;SDS011;759;53.170;8.210;2022-08-21T03:46:20;4.13;;;3.57;;
1531;SDS011;759;53.170;8.210;2022-08-21T03:48:45;4.87;;;3.87;;
1531;SDS011;759;53.170;8.210;2022-08-21T03:51:11;6.03;;;3.90;;
1531;SDS011;759;53.170;8.210;2022-08-21T03:53:37;4.50;;;4.10;;
1531;SDS011;759;53.170;8.210;2022-08-21T03:56:02;6.83;;;4.67;;
1531;SDS011;759;53.170;8.210;2022-08-21T03:58:28;4.50;;;4.10;;
1531;SDS011;759;53.170;8.210;2022-08-21T04:00:55;4.27;;;3.87;;
1531;SDS011;759;53.170;8.210;2022-08-21T04:03:22;6.93;;;4.70;;
1531;SDS011;759;53.170;8.210;2022-08-21T04:05:48;5.67;;;3.97;;
1531;SDS011;759;53.170;8.210;2022-08-21T04:08:14;9.40;;;5.03;;
1531;SDS011;759;53.170;8.210;2022-08-21T04:10:42;3.45;;;3.15;;
1531;SDS011;759;53.170;8.210;2022-08-21T04:13:09;4.40;;;4.00;;
1531;SDS011;759;53.170;8.210;2022-08-21T04:15:35;7.60;;;4.10;;
1531;SDS011;759;53.170;8.210;2022-08-21T04:18:01;5.83;;;4.30;;
1531;SDS011;759;53.170;8.210;2022-08-21T04:20:26;6.07;;;4.67;;
1531;SDS011;759;53.170;8.210;2022-08-21T04:22:52;8.63;;;4.37;;
1531;SDS011;759;53.170;8.210;2022-08-21T04:25:18;5.60;;;3.93;;
1531;SDS011;759;53.170;8.210;2022-08-21T04:27:45;5.90;;;4.60;;
1531;SDS011;759;53.170;8.210;2022-08-21T04:30:12;5.00;;;4.50;;
1531;SDS011;759;53.170;8.210;2022-08-21T04:32:38;4.77;;;4.37;;
1531;SDS011;759;53.170;8.210;2022-08-21T04:35:05;4.47;;;3.90;;
1531;SDS011;759;53.170;8.210;2022-08-21T04:37:34;4.67;;;4.23;;
1531;SDS011;759;53.170;8.210;2022-08-21T04:40:00;5.90;;;4.93;;
1531;SDS011;759;53.170;8.210;2022-08-21T04:42:26;6.40;;;4.73;;
1531;SDS011;759;53.170;8.210;2022-08-21T04:44:53;5.27;;;4.80;;
1531;SDS011;759;53.170;8.210;2022-08-21T04:47:19;6.50;;;5.17;;
1531;SDS011;759;53.170;8.210;2022-08-21T04:49:45;6.13;;;5.17;;
1531;SDS011;759;53.170;8.210;2022-08-21T04:52:11;6.50;;;5.90;;
1531;SDS011;759;53.170;8.210;2022-08-21T04:54:40;6.60;;;4.83;;
1531;SDS011;759;53.170;8.210;2022-08-21T04:57:08;7.83;;;5.60;;
1531;SDS011;759;53.170;8.210;2022-08-21T04:59:37;6.57;;;5.50;;
1531;SDS011;759;53.170;8.210;2022-08-21T05:02:06;6.15;;;5.65;;
1531;SDS011;759;53.170;8.210;2022-08-21T05:04:34;8.00;;;6.23;;
1531;SDS011;759;53.170;8.210;2022-08-21T05:07:03;6.97;;;5.47;;
1531;SDS011;759;53.170;8.210;2022-08-21T05:09:32;6.17;;;5.57;;
1531;SDS011;759;53.170;8.210;2022-08-21T05:11:59;7.90;;;6.80;;
1531;SDS011;759;53.170;8.210;2022-08-21T05:14:26;11.20;;;6.90;;
1531;SDS011;759;53.170;8.210;2022-08-21T05:16:52;9.13;;;7.80;;
1531;SDS011;759;53.170;8.210;2022-08-21T05:19:17;7.90;;;6.90;;
1531;SDS011;759;53.170;8.210;2022-08-21T05:21:44;8.10;;;6.90;;
1531;SDS011;759;53.170;8.210;2022-08-21T05:24:10;8.00;;;7.17;;
1531;SDS011;759;53.170;8.210;2022-08-21T05:26:36;8.03;;;6.90;;
1531;SDS011;759;53.170;8.210;2022-08-21T05:29:03;8.37;;;6.30;;
1531;SDS011;759;53.170;8.210;2022-08-21T05:31:29;7.77;;;6.97;;
1531;SDS011;759;53.170;8.210;2022-08-21T05:33:55;7.80;;;6.80;;
1531;SDS011;759;53.170;8.210;2022-08-21T05:36:20;8.10;;;7.30;;
1531;SDS011;759;53.170;8.210;2022-08-21T05:38:45;10.90;;;6.93;;
1531;SDS011;759;53.170;8.210;2022-08-21T05:41:11;8.20;;;6.90;;
1531;SDS011;759;53.170;8.210;2022-08-21T05:43:37;10.13;;;7.37;;
1531;SDS011;759;53.170;8.210;2022-08-21T05:46:02;9.20;;;6.77;;
1531;SDS011;759;53.170;8.210;2022-08-21T05:48:29;8.67;;;6.77;;
1531;SDS011;759;53.170;8.210;2022-08-21T05:50:55;9.83;;;6.70;;
1531;SDS011;759;53.170;8.210;2022-08-21T05:53:21;8.53;;;7.20;;
1531;SDS011;759;53.170;8.210;2022-08-21T05:55:48;9.05;;;7.80;;
1531;SDS011;759;53.170;8.210;2022-08-21T05:58:15;11.40;;;7.50;;
1531;SDS011;759;53.170;8.210;2022-08-21T06:00:42;8.57;;;7.57;;
1531;SDS011;759;53.170;8.210;2022-08-21T06:03:12;9.73;;;7.80;;
1531;SDS011;759;53.170;8.210;2022-08-21T06:05:40;7.43;;;6.67;;
1531;SDS011;759;53.170;8.210;2022-08-21T06:08:06;10.80;;;7.87;;
1531;SDS011;759;53.170;8.210;2022-08-21T06:10:31;13.03;;;6.80;;
1531;SDS011;759;53.170;8.210;2022-08-21T06:12:56;7.90;;;7.10;;
1531;SDS011;759;53.170;8.210;2022-08-21T06:15:22;10.60;;;5.90;;
1531;SDS011;759;53.170;8.210;2022-08-21T06:17:47;13.33;;;6.97;;
1531;SDS011;759;53.170;8.210;2022-08-21T06:20:13;8.70;;;6.57;;
1531;SDS011;759;53.170;8.210;2022-08-21T06:22:38;7.00;;;6.35;;
1531;SDS011;759;53.170;8.210;2022-08-21T06:25:04;8.33;;;7.47;;
1531;SDS011;759;53.170;8.210;2022-08-21T06:27:30;9.60;;;6.33;;
1531;SDS011;759;53.170;8.210;2022-08-21T06:29:55;10.90;;;6.90;;
1531;SDS011;759;53.170;8.210;2022-08-21T06:32:22;16.10;;;7.43;;
1531;SDS011;759;53.170;8.210;2022-08-21T06:34:48;7.15;;;6.40;;
1531;SDS011;759;53.170;8.210;2022-08-21T06:37:13;7.95;;;5.80;;
1531;SDS011;759;53.170;8.210;2022-08-21T06:39:39;7.00;;;6.33;;
1531;SDS011;759;53.170;8.210;2022-08-21T06:42:04;7.60;;;6.45;;
1531;SDS011;759;53.170;8.210;2022-08-21T06:44:30;7.60;;;5.57;;
1531;SDS011;759;53.170;8.210;2022-08-21T06:46:56;10.45;;;6.70;;
1531;SDS011;759;53.170;8.210;2022-08-21T06:49:22;8.30;;;4.70;;
1531;SDS011;759;53.170;8.210;2022-08-21T06:51:47;6.50;;;5.13;;
1531;SDS011;759;53.170;8.210;2022-08-21T06:54:13;5.95;;;5.15;;
1531;SDS011;759;53.170;8.210;2022-08-21T06:56:38;10.30;;;5.43;;
1531;SDS011;759;53.170;8.210;2022-08-21T06:59:04;11.90;;;6.47;;
1531;SDS011;759;53.170;8.210;2022-08-21T07:01:30;10.37;;;5.23;;
1531;SDS011;759;53.170;8.210;2022-08-21T07:03:56;6.60;;;5.40;;
1531;SDS011;759;53.170;8.210;2022-08-21T07:06:22;5.23;;;4.50;;
1531;SDS011;759;53.170;8.210;2022-08-21T07:08:47;5.55;;;5.05;;
1531;SDS011;759;53.170;8.210;2022-08-21T07:11:22;5.80;;;4.50;;
1531;SDS011;759;53.170;8.210;2022-08-21T07:13:49;6.30;;;4.07;;
1531;SDS011;759;53.170;8.210;2022-08-21T07:16:17;5.53;;;4.50;;
1531;SDS011;759;53.170;8.210;2022-08-21T07:18:42;6.83;;;4.67;;
1531;SDS011;759;53.170;8.210;2022-08-21T07:21:08;5.00;;;3.93;;
1531;SDS011;759;53.170;8.210;2022-08-21T07:23:37;5.30;;;4.80;;
1531;SDS011;759;53.170;8.210;2022-08-21T07:26:04;7.40;;;4.33;;
1531;SDS011;759;53.170;8.210;2022-08-21T07:28:31;7.40;;;5.30;;
1531;SDS011;759;53.170;8.210;2022-08-21T07:30:57;8.03;;;5.13;;
1531;SDS011;759;53.170;8.210;2022-08-21T07:33:25;10.50;;;5.20;;
1531;SDS011;759;53.170;8.210;2022-08-21T07:35:52;4.70;;;4.30;;
1531;SDS011;759;53.170;8.210;2022-08-21T07:38:18;6.90;;;4.40;;
1531;SDS011;759;53.170;8.210;2022-08-21T07:40:44;5.37;;;3.60;;
1531;SDS011;759;53.170;8.210;2022-08-21T07:43:10;12.67;;;4.30;;
1531;SDS011;759;53.170;8.210;2022-08-21T07:45:36;7.57;;;3.60;;
1531;SDS011;759;53.170;8.210;2022-08-21T07:48:02;5.55;;;3.90;;
1531;SDS011;759;53.170;8.210;2022-08-21T07:50:28;4.30;;;3.90;;
1531;SDS011;759;53.170;8.210;2022-08-21T07:52:53;8.17;;;3.67;;
1531;SDS011;759;53.170;8.210;2022-08-21T07:55:19;4.87;;;4.40;;
1531;SDS011;759;53.170;8.210;2022-08-21T07:57:47;7.40;;;4.57;;
1531;SDS011;759;53.170;8.210;2022-08-21T08:00:18;8.90;;;4.10;;
1531;SDS011;759;53.170;8.210;2022-08-21T08:02:47;3.87;;;3.27;;
1531;SDS011;759;53.170;8.210;2022-08-21T08:05:16;8.43;;;4.93;;
1531;SDS011;759;53.170;8.210;2022-08-21T08:07:43;8.43;;;3.50;;
1531;SDS011;759;53.170;8.210;2022-08-21T08:10:08;3.90;;;2.60;;
1531;SDS011;759;53.170;8.210;2022-08-21T08:12:38;4.65;;;3.40;;
1531;SDS011;759;53.170;8.210;2022-08-21T08:15:06;12.27;;;3.83;;
1531;SDS011;759;53.170;8.210;2022-08-21T08:17:34;6.13;;;3.90;;
1531;SDS011;759;53.170;8.210;2022-08-21T08:19:59;7.30;;;3.50;;
1531;SDS011;759;53.170;8.210;2022-08-21T08:22:26;6.03;;;2.57;;
1531;SDS011;759;53.170;8.210;2022-08-21T08:24:52;9.30;;;3.60;;
1531;SDS011;759;53.170;8.210;2022-08-21T08:27:18;5.93;;;3.00;;
1531;SDS011;759;53.170;8.210;2022-08-21T08:29:44;5.47;;;2.40;;
1531;SDS011;759;53.170;8.210;2022-08-21T08:32:10;5.27;;;2.63;;
1531;SDS011;759;53.170;8.210;2022-08-21T08:34:37;11.45;;;3.50;;
1531;SDS011;759;53.170;8.210;2022-08-21T08:37:04;5.57;;;3.00;;
1531;SDS011;759;53.170;8.210;2022-08-21T08:39:30;4.97;;;2.73;;
1531;SDS011;759;53.170;8.210;2022-08-21T08:42:05;6.63;;;3.10;;
1531;SDS011;759;53.170;8.210;2022-08-21T08:44:35;7.33;;;3.40;;
1531;SDS011;759;53.170;8.210;2022-08-21T08:47:01;8.07;;;3.83;;
1531;SDS011;759;53.170;8.210;2022-08-21T08:49:39;6.17;;;3.13;;
1531;SDS011;759;53.170;8.210;2022-08-21T08:52:26;6.30;;;3.80;;
1531;SDS011;759;53.170;8.210;2022-08-21T08:55:02;7.60;;;3.67;;
1531;SDS011;759;53.170;8.210;2022-08-21T08:57:28;4.05;;;3.30;;
1531;SDS011;759;53.170;8.210;2022-08-21T08:59:56;6.50;;;3.80;;
1531;SDS011;759;53.170;8.210;2022-08-21T09:02:24;8.30;;;4.20;;
1531;SDS011;759;53.170;8.210;2022-08-21T09:04:50;4.07;;;3.00;;
1531;SDS011;759;53.170;8.210;2022-08-21T09:12:56;6.63;;;3.80;;
1531;SDS011;759;53.170;8.210;2022-08-21T09:18:32;5.67;;;3.50;;
1531;SDS011;759;53.170;8.210;2022-08-21T09:21:26;4.80;;;2.73;;
1531;SDS011;759;53.170;8.210;2022-08-21T09:24:47;6.50;;;3.23;;
1531;SDS011;759;53.170;8.210;2022-08-21T09:27:09;4.00;;;2.40;;
1531;SDS011;759;53.170;8.210;2022-08-21T09:29:41;9.90;;;2.47;;
1531;SDS011;759;53.170;8.210;2022-08-21T09:32:16;4.00;;;2.37;;
1531;SDS011;759;53.170;8.210;2022-08-21T09:34:54;2.30;;;2.10;;
1531;SDS011;759;53.170;8.210;2022-08-21T09:37:22;3.50;;;2.37;;
1531;SDS011;759;53.170;8.210;2022-08-21T09:39:47;4.50;;;2.50;;
1531;SDS011;759;53.170;8.210;2022-08-21T09:42:20;8.53;;;3.03;;
1531;SDS011;759;53.170;8.210;2022-08-21T09:45:04;5.87;;;2.93;;
1531;SDS011;759;53.170;8.210;2022-08-21T09:47:34;3.25;;;2.40;;
1531;SDS011;759;53.170;8.210;2022-08-21T09:50:07;5.87;;;2.13;;
1531;SDS011;759;53.170;8.210;2022-08-21T09:52:41;7.93;;;2.80;;
1531;SDS011;759;53.170;8.210;2022-08-21T09:55:08;4.33;;;2.23;;
1531;SDS011;759;53.170;8.210;2022-08-21T09:58:01;3.73;;;2.83;;
1531;SDS011;759;53.170;8.210;2022-08-21T10:00:29;4.60;;;2.47;;
1531;SDS011;759;53.170;8.210;2022-08-21T10:03:09;5.45;;;2.75;;
1531;SDS011;759;53.170;8.210;2022-08-21T10:05:38;6.27;;;2.30;;
1531;SDS011;759;53.170;8.210;2022-08-21T10:08:04;4.40;;;2.30;;
1531;SDS011;759;53.170;8.210;2022-08-21T10:10:31;2.90;;;2.33;;
1531;SDS011;759;53.170;8.210;2022-08-21T10:18:38;4.50;;;2.97;;
1531;SDS011;759;53.170;8.210;2022-08-21T10:21:08;3.35;;;1.70;;
1531;SDS011;759;53.170;8.210;2022-08-21T10:23:54;5.80;;;2.47;;
1531;SDS011;759;53.170;8.210;2022-08-21T10:27:05;3.80;;;2.10;;
1531;SDS011;759;53.170;8.210;2022-08-21T10:43:02;1.70;;;1.60;;
1531;SDS011;759;53.170;8.210;2022-08-21T10:45:48;2.23;;;1.93;;
1531;SDS011;759;53.170;8.210;2022-08-21T10:48:37;5.30;;;2.35;;
1531;SDS011;759;53.170;8.210;2022-08-21T10:53:59;3.10;;;2.33;;
1531;SDS011;759;53.170;8.210;2022-08-21T10:56:42;4.40;;;2.40;;
1531;SDS011;759;53.170;8.210;2022-08-21T10:59:26;2.55;;;2.20;;
1531;SDS011;759;53.170;8.210;2022-08-21T11:01:57;5.77;;;3.03;;
1531;SDS011;759;53.170;8.210;2022-08-21T11:04:30;2.53;;;1.97;;
1531;SDS011;759;53.170;8.210;2022-08-21T11:07:15;2.87;;;1.83;;
1531;SDS011;759;53.170;8.210;2022-08-21T11:09:46;6.47;;;3.47;;
1531;SDS011;759;53.170;8.210;2022-08-21T11:12:48;4.33;;;2.73;;
1531;SDS011;759;53.170;8.210;2022-08-21T11:23:54;2.57;;;1.87;;
1531;SDS011;759;53.170;8.210;2022-08-21T11:27:10;3.97;;;2.20;;
1531;SDS011;759;53.170;8.210;2022-08-21T11:29:58;2.90;;;2.00;;
1531;SDS011;759;53.170;8.210;2022-08-21T11:49:02;2.67;;;1.90;;
1531;SDS011;759;53.170;8.210;2022-08-21T11:56:54;2.60;;;2.10;;
1531;SDS011;759;53.170;8.210;2022-08-21T11:59:32;2.37;;;1.93;;
1531;SDS011;759;53.170;8.210;2022-08-21T12:01:58;3.70;;;1.80;;
1531;SDS011;759;53.170;8.210;2022-08-21T12:04:29;3.07;;;1.67;;
1531;SDS011;759;53.170;8.210;2022-08-21T12:07:08;4.37;;;2.20;;
1531;SDS011;759;53.170;8.210;2022-08-21T12:09:35;3.47;;;2.30;;
1531;SDS011;759;53.170;8.210;2022-08-21T12:12:07;5.90;;;1.97;;
1531;SDS011;759;53.170;8.210;2022-08-21T12:14:49;3.50;;;1.90;;
1531;SDS011;759;53.170;8.210;2022-08-21T12:17:20;2.83;;;2.13;;
1531;SDS011;759;53.170;8.210;2022-08-21T12:20:00;2.07;;;1.77;;
1531;SDS011;759;53.170;8.210;2022-08-21T12:22:47;2.27;;;2.00;;
1531;SDS011;759;53.170;8.210;2022-08-21T12:25:17;3.13;;;2.00;;
1531;SDS011;759;53.170;8.210;2022-08-21T12:30:48;4.73;;;2.17;;
1531;SDS011;759;53.170;8.210;2022-08-21T12:33:20;3.60;;;1.73;;
1531;SDS011;759;53.170;8.210;2022-08-21T12:35:53;3.40;;;1.97;;
1531;SDS011;759;53.170;8.210;2022-08-21T12:38:34;2.90;;;2.33;;
1531;SDS011;759;53.170;8.210;2022-08-21T12:41:12;1.93;;;1.80;;
1531;SDS011;759;53.170;8.210;2022-08-21T12:43:46;2.57;;;2.40;;
1531;SDS011;759;53.170;8.210;2022-08-21T12:46:30;3.10;;;1.70;;
1531;SDS011;759;53.170;8.210;2022-08-21T12:49:02;2.77;;;2.50;;
1531;SDS011;759;53.170;8.210;2022-08-21T12:51:50;2.50;;;1.70;;
1531;SDS011;759;53.170;8.210;2022-08-21T12:54:24;3.30;;;2.03;;
1531;SDS011;759;53.170;8.210;2022-08-21T12:56:58;3.63;;;1.90;;
1531;SDS011;759;53.170;8.210;2022-08-21T12:59:29;8.70;;;2.13;;
1531;SDS011;759;53.170;8.210;2022-08-21T13:01:54;2.60;;;1.87;;
1531;SDS011;759;53.170;8.210;2022-08-21T13:04:22;3.70;;;2.10;;
1531;SDS011;759;53.170;8.210;2022-08-21T13:06:57;2.90;;;1.87;;
1531;SDS011;759;53.170;8.210;2022-08-21T13:09:26;3.27;;;2.10;;
1531;SDS011;759;53.170;8.210;2022-08-21T13:11:53;2.93;;;1.90;;
1531;SDS011;759;53.170;8.210;2022-08-21T13:14:33;3.53;;;1.93;;
1531;SDS011;759;53.170;8.210;2022-08-21T13:17:03;2.67;;;1.70;;
1531;SDS011;759;53.170;8.210;2022-08-21T13:19:30;5.90;;;3.60;;
1531;SDS011;759;53.170;8.210;2022-08-21T13:21:56;2.57;;;2.00;;
1531;SDS011;759;53.170;8.210;2022-08-21T13:26:50;2.90;;;2.20;;
1531;SDS011;759;53.170;8.210;2022-08-21T13:29:17;3.57;;;1.60;;
1531;SDS011;759;53.170;8.210;2022-08-21T13:31:49;3.70;;;1.70;;
1531;SDS011;759;53.170;8.210;2022-08-21T13:34:22;3.00;;;2.00;;
1531;SDS011;759;53.170;8.210;2022-08-21T13:36:50;2.33;;;1.90;;
1531;SDS011;759;53.170;8.210;2022-08-21T13:39:19;1.90;;;1.77;;
1531;SDS011;759;53.170;8.210;2022-08-21T13:41:47;4.40;;;2.00;;
1531;SDS011;759;53.170;8.210;2022-08-21T13:44:17;3.73;;;2.03;;
1531;SDS011;759;53.170;8.210;2022-08-21T13:46:44;2.80;;;1.60;;
1531;SDS011;759;53.170;8.210;2022-08-21T13:49:13;1.90;;;1.73;;
1531;SDS011;759;53.170;8.210;2022-08-21T13:51:41;4.33;;;1.90;;
1531;SDS011;759;53.170;8.210;2022-08-21T13:57:18;4.40;;;1.90;;
1531;SDS011;759;53.170;8.210;2022-08-21T13:59:45;1.40;;;1.30;;
1531;SDS011;759;53.170;8.210;2022-08-21T14:02:15;2.90;;;1.67;;
1531;SDS011;759;53.170;8.210;2022-08-21T14:04:58;1.53;;;1.43;;
1531;SDS011;759;53.170;8.210;2022-08-21T14:07:31;3.63;;;1.67;;
1531;SDS011;759;53.170;8.210;2022-08-21T14:10:06;1.53;;;1.43;;
1531;SDS011;759;53.170;8.210;2022-08-21T14:12:42;2.33;;;1.80;;
1531;SDS011;759;53.170;8.210;2022-08-21T14:15:13;2.43;;;1.50;;
1531;SDS011;759;53.170;8.210;2022-08-21T14:20:27;5.00;;;1.90;;
1531;SDS011;759;53.170;8.210;2022-08-21T14:22:55;3.27;;;1.37;;
1531;SDS011;759;53.170;8.210;2022-08-21T14:27:51;2.40;;;1.60;;
1531;SDS011;759;53.170;8.210;2022-08-21T14:30:29;2.40;;;1.60;;
1531;SDS011;759;53.170;8.210;2022-08-21T14:32:56;1.60;;;1.30;;
1531;SDS011;759;53.170;8.210;2022-08-21T14:35:22;3.40;;;1.87;;
1531;SDS011;759;53.170;8.210;2022-08-21T14:37:49;5.37;;;2.10;;
1531;SDS011;759;53.170;8.210;2022-08-21T14:40:16;2.30;;;1.50;;
1531;SDS011;759;53.170;8.210;2022-08-21T14:42:42;3.10;;;1.50;;
1531;SDS011;759;53.170;8.210;2022-08-21T14:45:14;3.90;;;1.43;;
1531;SDS011;759;53.170;8.210;2022-08-21T14:47:53;1.87;;;1.70;;
1531;SDS011;759;53.170;8.210;2022-08-21T14:50:19;6.10;;;2.10;;
1531;SDS011;759;53.170;8.210;2022-08-21T14:52:45;2.20;;;1.50;;
1531;SDS011;759;53.170;8.210;2022-08-21T14:55:11;2.10;;;1.90;;
1531;SDS011;759;53.170;8.210;2022-08-21T14:57:44;1.80;;;1.70;;
1531;SDS011;759;53.170;8.210;2022-08-21T15:00:13;3.17;;;1.90;;
1531;SDS011;759;53.170;8.210;2022-08-21T15:02:41;1.87;;;1.73;;
1531;SDS011;759;53.170;8.210;2022-08-21T15:05:07;1.60;;;1.50;;
1531;SDS011;759;53.170;8.210;2022-08-21T15:07:33;1.40;;;1.30;;
1531;SDS011;759;53.170;8.210;2022-08-21T15:09:58;1.80;;;1.70;;
1531;SDS011;759;53.170;8.210;2022-08-21T15:12:24;5.90;;;1.60;;
1531;SDS011;759;53.170;8.210;2022-08-21T15:14:50;2.13;;;1.70;;
1531;SDS011;759;53.170;8.210;2022-08-21T15:17:19;2.00;;;1.50;;
1531;SDS011;759;53.170;8.210;2022-08-21T15:19:44;2.40;;;1.60;;
1531;SDS011;759;53.170;8.210;2022-08-21T15:22:10;2.00;;;1.80;;
1531;SDS011;759;53.170;8.210;2022-08-21T15:24:36;2.13;;;1.80;;
1531;SDS011;759;53.170;8.210;2022-08-21T15:27:02;2.20;;;1.50;;
1531;SDS011;759;53.170;8.210;2022-08-21T15:29:29;2.03;;;1.30;;
1531;SDS011;759;53.170;8.210;2022-08-21T15:31:56;3.00;;;1.70;;
1531;SDS011;759;53.170;8.210;2022-08-21T15:34:25;2.20;;;1.67;;
1531;SDS011;759;53.170;8.210;2022-08-21T15:36:52;2.00;;;1.90;;
1531;SDS011;759;53.170;8.210;2022-08-21T15:39:18;2.00;;;1.70;;
1531;SDS011;759;53.170;8.210;2022-08-21T15:41:44;4.00;;;2.07;;
1531;SDS011;759;53.170;8.210;2022-08-21T15:44:11;2.43;;;1.60;;
1531;SDS011;759;53.170;8.210;2022-08-21T15:46:38;1.10;;;1.00;;
1531;SDS011;759;53.170;8.210;2022-08-21T15:52:21;2.50;;;1.53;;
1531;SDS011;759;53.170;8.210;2022-08-21T15:54:48;1.90;;;1.80;;
1531;SDS011;759;53.170;8.210;2022-08-21T15:57:15;2.45;;;1.65;;
1531;SDS011;759;53.170;8.210;2022-08-21T15:59:49;2.15;;;1.70;;
1531;SDS011;759;53.170;8.210;2022-08-21T16:02:19;1.70;;;1.60;;
1531;SDS011;759;53.170;8.210;2022-08-21T16:04:52;2.17;;;1.93;;
1531;SDS011;759;53.170;8.210;2022-08-21T16:07:18;2.37;;;1.60;;
1531;SDS011;759;53.170;8.210;2022-08-21T16:09:44;5.50;;;2.03;;
1531;SDS011;759;53.170;8.210;2022-08-21T16:12:11;3.25;;;1.95;;
1531;SDS011;759;53.170;8.210;2022-08-21T16:14:44;1.77;;;1.60;;
1531;SDS011;759;53.170;8.210;2022-08-21T16:17:09;4.30;;;2.20;;
1531;SDS011;759;53.170;8.210;2022-08-21T16:19:38;3.27;;;2.30;;
1531;SDS011;759;53.170;8.210;2022-08-21T16:22:04;4.37;;;2.47;;
1531;SDS011;759;53.170;8.210;2022-08-21T16:24:29;4.40;;;2.23;;
1531;SDS011;759;53.170;8.210;2022-08-21T16:26:55;3.13;;;2.37;;
1531;SDS011;759;53.170;8.210;2022-08-21T16:29:21;6.30;;;2.73;;
1531;SDS011;759;53.170;8.210;2022-08-21T16:31:47;3.40;;;2.70;;
1531;SDS011;759;53.170;8.210;2022-08-21T16:34:16;5.70;;;2.10;;
1531;SDS011;759;53.170;8.210;2022-08-21T16:36:44;3.47;;;2.33;;
1531;SDS011;759;53.170;8.210;2022-08-21T16:39:14;3.40;;;2.40;;
1531;SDS011;759;53.170;8.210;2022-08-21T16:41:39;2.30;;;2.07;;
1531;SDS011;759;53.170;8.210;2022-08-21T16:44:05;3.65;;;2.30;;
1531;SDS011;759;53.170;8.210;2022-08-21T16:46:38;4.00;;;2.70;;
1531;SDS011;759;53.170;8.210;2022-08-21T16:49:08;4.50;;;2.37;;
1531;SDS011;759;53.170;8.210;2022-08-21T16:51:36;6.00;;;2.57;;
1531;SDS011;759;53.170;8.210;2022-08-21T16:54:10;3.60;;;2.40;;
1531;SDS011;759;53.170;8.210;2022-08-21T16:56:38;5.47;;;2.37;;
1531;SDS011;759;53.170;8.210;2022-08-21T16:59:30;2.40;;;2.20;;